TAF Text Data
IDs:
Format:
Raw Decoded Include METAR

Data at: 1235 UTC 23 Jun 2021

KTYS 231153Z 03007KT 10SM SCT250 17/13 A3013 RMK AO2 SLP194 70007 T01670128 10178 20139 51014

KTYS 231120Z 2312/2412 02005KT P6SM SCT250

KGSO 231154Z 07007KT 10SM FEW022 FEW070 SCT250 17/14 A3016 RMK AO2 SLP207 70046 T01720139 10172 20156 53022

KGSO 231120Z 2312/2412 01004KT P6SM FEW070 SCT250
  FM231300 05011KT P6SM SCT250
  FM240100 09006KT P6SM SKC


KCLT 231152Z 05008KT 10SM FEW017 FEW070 SCT250 21/16 A3015 RMK AO2 SLP201 70006 T02060161 10211 20172 53022

KCLT 231120Z 2312/2418 04006KT P6SM SCT070 SCT250
  FM231800 06006KT P6SM SCT050 SCT250


KRDU 231151Z 06005KT 10SM FEW080 FEW250 18/16 A3014 RMK AO2 SLP204 70103 T01830161 10183 20150 51022

KRDU 231120Z 2312/2412 00000KT P6SM SCT080 SCT250
  FM231300 05009KT P6SM SCT250
  FM240000 08005KT P6SM FEW250


KPOB 231156Z 06008KT 10SM FEW080 19/17 A3010 RMK AO2A SLPNO ALSTG ESTMD 70060

TAF KPOB 230902Z 2309/2415 02006KT 9999 SCT015 BKN080 QNH3002INS
  BECMG 2313/2314 05012G18KT 9999 SCT025 SCT050 QNH3015INS
  BECMG 2322/2323 04006KT 9999 FEW055 QNH3013INS
  BECMG 2413/2414 03010G15KT 9999 SKC QNH3019INS TX28/2319Z TN17/2309Z


KFBG 231156Z AUTO 04006KT 10SM FEW075 19/19 A3011 RMK AO2 SLP198 70056 T01930191 10193 20175 52025 $

TAF AMD KFBG 231000Z 2310/2415 05006KT 9999 BKN070 QNH3002INS
  BECMG 2405/2406 07006KT 9999 SKC QNH3020INS TX26/2318Z TN17/2311Z


KFAY 231153Z 03006KT 10SM CLR 20/17 A3012 RMK AO2 SLP192 70055 T02000172 10200 20183 53026

KFAY 231120Z 2312/2412 03005KT P6SM FEW005 OVC080
  FM231300 05011KT P6SM BKN250
  FM240200 08004KT P6SM SKC


KRWI 231153Z AUTO 04007KT 10SM CLR 19/14 A3014 RMK AO2 SLP206 7//// T01940144 10194 20156 51025 $

KRWI 231120Z 2312/2412 04004KT 6SM BR SKC
  FM231500 04011KT P6SM BKN250
  FM240000 05002KT P6SM SKC


KISO 231156Z 02004KT 10SM CLR 19/18 A3012

KISO 231120Z 2312/2412 03006KT P6SM SCT250
  FM231400 04010G17KT P6SM SCT035 SCT250
  FM240000 05004KT P6SM FEW250 AMD LTD TO CLD VIS AND WIND


KGWW 231235Z AUTO 05007KT 10SM CLR 20/18 A3014 RMK AO2 T01950179


KGSB 231156Z AUTO 04009KT 10SM FEW080 20/18 A3010 RMK AO2 SLP195 70125 T01960175 10196 20176 52025 $

TAF KGSB 231200Z 2312/2418 04009KT 9999 SCT040 SCT090 QNH3001INS TX28/2321Z TN14/2409Z

KORF 231151Z AUTO 05010KT 10SM CLR 21/11 A3014 RMK AO2 SLP206 70049 T02110111 10211 20194 51024 $

KORF 231120Z 2312/2412 05012G22KT P6SM SCT050 BKN250
  TEMPO 2312/2316 BKN050
  FM232200 04008KT P6SM SCT250


KLFI 231156Z AUTO 04014KT 9SM CLR 20/12 A3015 RMK AO2 SLP216 70041 T02030120 10203 20173 52024 $

TAF KLFI 230900Z 2309/2415 04012KT 9999 FEW020 SCT050 QNH3005INS
  BECMG 2314/2315 02015G20KT 9999 FEW050 QNH3019INS
  BECMG 2411/2412 05015G20KT 9999 SCT020 OVC028 QNH3029INS TX23/2317Z TN17/2408Z


KNTU 231156Z 04011KT 10SM SCT250 21/11 A3014 RMK AO2 SLP210 70104 T02060111 10206 20183 51025

TAF KNTU 2307/2407 03010G18KT 9999 SCT050 SCT250 QNH2998INS
  BECMG 2318/2320 04010G20KT 9999 FEW050 QNH3015INS T20/2309Z T22/2319Z FN00231


KECG 231154Z 03008KT 10SM CLR 20/14 A3014 RMK AO2 SLP205 70063 T02000144 10200 20183 51027

KECG 231120Z 2312/2412 03010KT P6SM SCT050 BKN250
  FM231400 05012G18KT P6SM SCT050 BKN250
  FM240000 03007KT P6SM BKN250


KEWN 231154Z 04010KT 10SM OVC046 21/18 A3010 RMK AO2 SLP194 70043 T02060178 10206 20200 51021

KEWN 231120Z 2312/2412 03008KT P6SM SCT045
  FM231400 04009G16KT P6SM SCT035 SCT100
  FM240000 03004KT P6SM FEW250


KNKT 231154Z 04013KT 7SM SCT040 OVC090 22/18 A3009 RMK SLP187 70095 T02170178 10217 20211 53022

TAF AMD KNKT 2312/2409 03005G15KT 9999 SCT040 OVC090 QNH3004INS
  BECMG 2315/2317 05010G20KT 9999 SCT030 SCT070 QNH3012INS
  TEMPO 2318/2321 04015G25KT
  FM240030 01010KT 9999 FEW035 FEW100 QNH3016INS
  FM240630 VRB05KT 9999 FEW100 QNH3020INS T28/2319Z T15/2408Z AMD 1208


KILM 231153Z 01007KT 10SM BKN023 OVC028 22/19 A3008 RMK AO2 SLP185 70029 T02170194 10217 20211 53025

KILM 231139Z 2312/2412 01008KT P6SM SCT010 BKN020
  FM231500 04011KT P6SM BKN035
  FM240500 03006KT P6SM SKC


KCAE 231156Z 07006KT 10SM BKN055 22/17 A3009 RMK AO2 SLP185 70036 T02220172 10222 20206 53023

KCAE 231137Z 2312/2412 VRB03KT P6SM BKN040
  FM231500 07008KT P6SM SCT050
  FM240000 08009KT P6SM SCT050


KSSC 231156Z 04007KT 10SM FEW055 SCT070 21/18 A3008 RMK AO2A SLP186 70002 T02090183 10211 20179 52022 $

TAF KSSC 230700Z 2307/2413 06006KT 9999 BKN045 OVC055 QNH2999INS
  BECMG 2313/2314 05010G15KT 9999 FEW040 SCT055 QNH3010INS TX28/2320Z TN18/2311Z


KMMT 231156Z 06004KT 10SM FEW065 21/20 A3007 RMK AO2A SLP183 70036 T02090195 10213 20182 52020 $

TAF KMMT 230700Z 2307/2413 06006KT 9999 BKN045 QNH3000INS
  BECMG 2311/2312 06009KT 9999 SCT050 QNH3009INS TX28/2321Z TN20/2311Z


KMYR 231156Z 36008KT 10SM OVC010 22/20 A3008 RMK AO2 SLP185 70009 T02170200 10217 20206 53025

KMYR 231201Z 2312/2412 36008KT P6SM OVC010
  FM231600 05009KT P6SM SCT035
  FM232100 09011KT P6SM SCT120


KCHS 231221Z 05006KT 10SM SCT006 SCT045 BKN250 23/21 A3005 RMK AO2 T02280206

KCHS 231136Z 2312/2412 01005KT P6SM SCT005 OVC010
  TEMPO 2312/2313 BKN006
  FM231330 02007KT P6SM SCT040
  FM231900 08010KT P6SM SCT050
  FM240500 04005KT P6SM SKC


KSAV 231153Z 00000KT 10SM FEW004 FEW080 BKN250 23/22 A3006 RMK AO2 SLP179 70057 T02280222 10228 20217 53020

KSAV 231136Z 2312/2412 VRB03KT P6SM SCT006 BKN080
  FM231400 33007KT P6SM SCT035
  FM231700 03008KT P6SM SCT040
  FM232100 09009KT P6SM SCT050
  FM240300 04005KT P6SM FEW050


KSVN 231156Z AUTO 00000KT 10SM CLR 23/22 A3004 RMK AO2 SLP176 70059 T02310221 10236 20221 52021 $

TAF KSVN 231200Z 2312/2418 32006KT 9999 FEW030 SCT050 QNH3000INS
  BECMG 2317/2318 11009KT 9999 SKC QNH3006INS
  BECMG 2405/2406 06009KT 9999 BKN020 QNH3010INS
  BECMG 2414/2415 06012G18KT 9999 BKN030 QNH3018INS TX28/2321Z TN22/2312Z


KDCA 231152Z 36006KT 10SM FEW140 FEW250 18/08 A3020 RMK AO2 SLP224 70034 T01780083 10178 20139 51026

KDCA 231130Z 2312/2418 35006KT P6SM FEW250
  FM231700 02005KT P6SM FEW060
  FM232000 05004KT P6SM FEW060
  FM240000 12004KT P6SM SCT200
  FM240600 VRB03KT P6SM SCT200
  FM241400 09008KT P6SM FEW050


KADW 231156Z AUTO 36006KT 10SM CLR 16/10 A3018 RMK AO2 SLP226 70035 T01560095 10156 20099 52026 $

TAF KADW 230900Z 2309/2415 36009KT 9999 SKC QNH3006INS
  BECMG 2318/2319 09006KT 9999 SKC QNH3020INS TX23/2320Z TN10/2310Z